sensor_id;sensor_type;location;lat;lon;timestamp;P1;durP1;ratioP1;P2;durP2;ratioP2
57467;SDS011;43311;51.196;7.518;2023-08-31T00:00:02;10.30;;;4.55;;
57467;SDS011;43311;51.196;7.518;2023-08-31T00:02:31;13.18;;;5.40;;
57467;SDS011;43311;51.196;7.518;2023-08-31T00:04:57;8.82;;;4.50;;
57467;SDS011;43311;51.196;7.518;2023-08-31T00:07:23;11.20;;;4.43;;
57467;SDS011;43311;51.196;7.518;2023-08-31T00:09:48;13.77;;;4.90;;
57467;SDS011;43311;51.196;7.518;2023-08-31T00:12:15;13.68;;;4.60;;
57467;SDS011;43311;51.196;7.518;2023-08-31T00:14:40;15.98;;;5.60;;
57467;SDS011;43311;51.196;7.518;2023-08-31T00:17:06;9.27;;;4.43;;
57467;SDS011;43311;51.196;7.518;2023-08-31T00:19:31;10.05;;;4.97;;
57467;SDS011;43311;51.196;7.518;2023-08-31T00:21:57;13.93;;;5.43;;
57467;SDS011;43311;51.196;7.518;2023-08-31T00:24:22;10.65;;;5.15;;
57467;SDS011;43311;51.196;7.518;2023-08-31T00:26:53;12.55;;;5.53;;
57467;SDS011;43311;51.196;7.518;2023-08-31T00:29:19;9.65;;;5.13;;
57467;SDS011;43311;51.196;7.518;2023-08-31T00:31:45;14.07;;;5.60;;
57467;SDS011;43311;51.196;7.518;2023-08-31T00:34:10;12.70;;;5.80;;
57467;SDS011;43311;51.196;7.518;2023-08-31T00:36:43;17.88;;;6.25;;
57467;SDS011;43311;51.196;7.518;2023-08-31T00:39:08;13.75;;;6.55;;
57467;SDS011;43311;51.196;7.518;2023-08-31T00:41:37;14.35;;;6.45;;
57467;SDS011;43311;51.196;7.518;2023-08-31T00:44:03;11.20;;;6.18;;
57467;SDS011;43311;51.196;7.518;2023-08-31T00:46:32;13.43;;;6.68;;
57467;SDS011;43311;51.196;7.518;2023-08-31T00:48:58;11.70;;;7.00;;
57467;SDS011;43311;51.196;7.518;2023-08-31T00:51:24;16.17;;;7.18;;
57467;SDS011;43311;51.196;7.518;2023-08-31T00:53:51;14.82;;;7.63;;
57467;SDS011;43311;51.196;7.518;2023-08-31T00:56:20;17.35;;;7.60;;
57467;SDS011;43311;51.196;7.518;2023-08-31T00:58:46;12.07;;;7.63;;
57467;SDS011;43311;51.196;7.518;2023-08-31T01:06:50;14.93;;;9.57;;
57467;SDS011;43311;51.196;7.518;2023-08-31T01:12:02;25.48;;;12.23;;
57467;SDS011;43311;51.196;7.518;2023-08-31T01:14:42;18.67;;;11.57;;
57467;SDS011;43311;51.196;7.518;2023-08-31T01:17:12;23.95;;;12.38;;
57467;SDS011;43311;51.196;7.518;2023-08-31T01:19:48;20.00;;;11.85;;
57467;SDS011;43311;51.196;7.518;2023-08-31T01:22:18;25.02;;;13.07;;
57467;SDS011;43311;51.196;7.518;2023-08-31T01:24:52;21.65;;;12.10;;
57467;SDS011;43311;51.196;7.518;2023-08-31T01:27:18;25.92;;;13.07;;
57467;SDS011;43311;51.196;7.518;2023-08-31T01:29:44;25.40;;;14.02;;
57467;SDS011;43311;51.196;7.518;2023-08-31T01:32:10;22.67;;;13.30;;
57467;SDS011;43311;51.196;7.518;2023-08-31T01:34:37;23.90;;;14.25;;
57467;SDS011;43311;51.196;7.518;2023-08-31T01:37:15;22.02;;;14.43;;
57467;SDS011;43311;51.196;7.518;2023-08-31T01:39:47;30.50;;;15.23;;
57467;SDS011;43311;51.196;7.518;2023-08-31T01:42:17;24.75;;;15.98;;
57467;SDS011;43311;51.196;7.518;2023-08-31T01:44:43;22.85;;;14.98;;
57467;SDS011;43311;51.196;7.518;2023-08-31T01:47:13;27.60;;;14.82;;
57467;SDS011;43311;51.196;7.518;2023-08-31T01:49:41;26.80;;;15.97;;
57467;SDS011;43311;51.196;7.518;2023-08-31T01:52:08;26.05;;;16.15;;
57467;SDS011;43311;51.196;7.518;2023-08-31T01:54:34;21.85;;;15.38;;
57467;SDS011;43311;51.196;7.518;2023-08-31T01:56:59;24.63;;;14.93;;
57467;SDS011;43311;51.196;7.518;2023-08-31T01:59:25;24.58;;;15.80;;
57467;SDS011;43311;51.196;7.518;2023-08-31T02:01:51;23.15;;;14.23;;
57467;SDS011;43311;51.196;7.518;2023-08-31T02:04:17;23.50;;;15.25;;
57467;SDS011;43311;51.196;7.518;2023-08-31T02:06:42;20.25;;;14.05;;
57467;SDS011;43311;51.196;7.518;2023-08-31T02:09:08;22.30;;;14.80;;
57467;SDS011;43311;51.196;7.518;2023-08-31T02:11:34;24.38;;;15.00;;
57467;SDS011;43311;51.196;7.518;2023-08-31T02:16:28;23.42;;;13.77;;
57467;SDS011;43311;51.196;7.518;2023-08-31T02:18:54;25.00;;;14.48;;
57467;SDS011;43311;51.196;7.518;2023-08-31T02:21:19;20.75;;;13.10;;
57467;SDS011;43311;51.196;7.518;2023-08-31T02:23:45;16.20;;;11.98;;
57467;SDS011;43311;51.196;7.518;2023-08-31T02:26:11;22.40;;;11.27;;
57467;SDS011;43311;51.196;7.518;2023-08-31T02:28:36;15.95;;;10.77;;
57467;SDS011;43311;51.196;7.518;2023-08-31T02:31:03;21.95;;;11.27;;
57467;SDS011;43311;51.196;7.518;2023-08-31T02:33:32;16.73;;;11.15;;
57467;SDS011;43311;51.196;7.518;2023-08-31T02:35:57;18.65;;;11.45;;
57467;SDS011;43311;51.196;7.518;2023-08-31T02:38:23;17.48;;;11.75;;
57467;SDS011;43311;51.196;7.518;2023-08-31T02:40:49;21.30;;;12.68;;
57467;SDS011;43311;51.196;7.518;2023-08-31T02:43:15;25.95;;;13.65;;
57467;SDS011;43311;51.196;7.518;2023-08-31T02:45:40;22.85;;;13.45;;
57467;SDS011;43311;51.196;7.518;2023-08-31T02:48:06;22.10;;;12.93;;
57467;SDS011;43311;51.196;7.518;2023-08-31T02:50:34;18.00;;;11.77;;
57467;SDS011;43311;51.196;7.518;2023-08-31T02:52:59;18.23;;;11.30;;
57467;SDS011;43311;51.196;7.518;2023-08-31T02:55:25;22.13;;;10.90;;
57467;SDS011;43311;51.196;7.518;2023-08-31T02:57:50;17.13;;;10.20;;
57467;SDS011;43311;51.196;7.518;2023-08-31T03:00:16;18.45;;;11.20;;
57467;SDS011;43311;51.196;7.518;2023-08-31T03:02:41;17.13;;;9.88;;
57467;SDS011;43311;51.196;7.518;2023-08-31T03:05:09;19.50;;;9.77;;
57467;SDS011;43311;51.196;7.518;2023-08-31T03:07:34;16.98;;;10.27;;
57467;SDS011;43311;51.196;7.518;2023-08-31T03:10:00;17.33;;;9.73;;
57467;SDS011;43311;51.196;7.518;2023-08-31T03:12:27;20.23;;;10.60;;
57467;SDS011;43311;51.196;7.518;2023-08-31T03:14:53;16.88;;;9.70;;
57467;SDS011;43311;51.196;7.518;2023-08-31T03:17:18;19.08;;;11.18;;
57467;SDS011;43311;51.196;7.518;2023-08-31T03:19:44;20.15;;;10.32;;
57467;SDS011;43311;51.196;7.518;2023-08-31T03:22:10;19.58;;;11.73;;
57467;SDS011;43311;51.196;7.518;2023-08-31T03:24:36;16.27;;;10.68;;
57467;SDS011;43311;51.196;7.518;2023-08-31T03:27:01;17.08;;;10.93;;
57467;SDS011;43311;51.196;7.518;2023-08-31T03:29:28;17.40;;;10.15;;
57467;SDS011;43311;51.196;7.518;2023-08-31T03:31:54;18.15;;;10.32;;
57467;SDS011;43311;51.196;7.518;2023-08-31T03:34:20;18.80;;;11.18;;
57467;SDS011;43311;51.196;7.518;2023-08-31T03:36:46;20.48;;;11.73;;
57467;SDS011;43311;51.196;7.518;2023-08-31T03:39:11;22.45;;;11.40;;
57467;SDS011;43311;51.196;7.518;2023-08-31T03:41:37;18.25;;;11.25;;
57467;SDS011;43311;51.196;7.518;2023-08-31T03:44:04;21.65;;;12.65;;
57467;SDS011;43311;51.196;7.518;2023-08-31T03:46:29;18.40;;;12.05;;
57467;SDS011;43311;51.196;7.518;2023-08-31T03:48:55;20.15;;;12.82;;
57467;SDS011;43311;51.196;7.518;2023-08-31T03:51:20;20.00;;;12.60;;
57467;SDS011;43311;51.196;7.518;2023-08-31T03:53:46;21.13;;;12.52;;
57467;SDS011;43311;51.196;7.518;2023-08-31T03:56:11;19.30;;;12.13;;
57467;SDS011;43311;51.196;7.518;2023-08-31T03:58:37;18.90;;;11.35;;
57467;SDS011;43311;51.196;7.518;2023-08-31T04:01:02;24.02;;;14.00;;
57467;SDS011;43311;51.196;7.518;2023-08-31T04:03:29;21.83;;;12.02;;
57467;SDS011;43311;51.196;7.518;2023-08-31T04:05:55;20.23;;;12.90;;
57467;SDS011;43311;51.196;7.518;2023-08-31T04:08:20;21.42;;;13.07;;
57467;SDS011;43311;51.196;7.518;2023-08-31T04:10:46;22.10;;;13.05;;
57467;SDS011;43311;51.196;7.518;2023-08-31T04:13:13;21.83;;;13.20;;
57467;SDS011;43311;51.196;7.518;2023-08-31T04:15:38;18.42;;;11.48;;
57467;SDS011;43311;51.196;7.518;2023-08-31T04:18:03;19.17;;;12.05;;
57467;SDS011;43311;51.196;7.518;2023-08-31T04:20:30;20.75;;;11.10;;
57467;SDS011;43311;51.196;7.518;2023-08-31T04:22:55;19.52;;;11.25;;
57467;SDS011;43311;51.196;7.518;2023-08-31T04:25:21;17.60;;;10.00;;
57467;SDS011;43311;51.196;7.518;2023-08-31T04:27:46;17.92;;;10.30;;
57467;SDS011;43311;51.196;7.518;2023-08-31T04:30:12;19.50;;;10.40;;
57467;SDS011;43311;51.196;7.518;2023-08-31T04:32:37;21.25;;;10.60;;
57467;SDS011;43311;51.196;7.518;2023-08-31T04:35:03;18.73;;;9.68;;
57467;SDS011;43311;51.196;7.518;2023-08-31T04:37:31;15.30;;;10.35;;
57467;SDS011;43311;51.196;7.518;2023-08-31T04:39:57;14.23;;;10.02;;
57467;SDS011;43311;51.196;7.518;2023-08-31T04:42:23;17.17;;;9.98;;
57467;SDS011;43311;51.196;7.518;2023-08-31T04:44:49;17.13;;;9.98;;
57467;SDS011;43311;51.196;7.518;2023-08-31T04:47:15;16.40;;;10.35;;
57467;SDS011;43311;51.196;7.518;2023-08-31T04:49:40;21.48;;;11.73;;
57467;SDS011;43311;51.196;7.518;2023-08-31T04:52:06;22.92;;;12.27;;
57467;SDS011;43311;51.196;7.518;2023-08-31T04:54:31;24.80;;;12.70;;
57467;SDS011;43311;51.196;7.518;2023-08-31T04:56:57;21.55;;;12.52;;
57467;SDS011;43311;51.196;7.518;2023-08-31T04:59:25;20.92;;;13.52;;
57467;SDS011;43311;51.196;7.518;2023-08-31T05:01:51;23.92;;;14.23;;
57467;SDS011;43311;51.196;7.518;2023-08-31T05:04:16;20.77;;;13.98;;
57467;SDS011;43311;51.196;7.518;2023-08-31T05:06:42;27.17;;;15.55;;
57467;SDS011;43311;51.196;7.518;2023-08-31T05:09:12;27.13;;;15.40;;
57467;SDS011;43311;51.196;7.518;2023-08-31T05:11:38;24.60;;;14.75;;
57467;SDS011;43311;51.196;7.518;2023-08-31T05:14:06;27.38;;;13.88;;
57467;SDS011;43311;51.196;7.518;2023-08-31T05:16:32;21.58;;;13.45;;
57467;SDS011;43311;51.196;7.518;2023-08-31T05:19:00;22.17;;;14.15;;
57467;SDS011;43311;51.196;7.518;2023-08-31T05:21:26;22.50;;;13.65;;
57467;SDS011;43311;51.196;7.518;2023-08-31T05:23:51;26.10;;;14.82;;
57467;SDS011;43311;51.196;7.518;2023-08-31T05:26:17;23.13;;;13.68;;
57467;SDS011;43311;51.196;7.518;2023-08-31T05:28:42;21.52;;;12.95;;
57467;SDS011;43311;51.196;7.518;2023-08-31T05:31:08;22.63;;;12.80;;
57467;SDS011;43311;51.196;7.518;2023-08-31T05:33:34;24.15;;;13.25;;
57467;SDS011;43311;51.196;7.518;2023-08-31T05:36:00;22.38;;;13.65;;
57467;SDS011;43311;51.196;7.518;2023-08-31T05:38:28;31.38;;;13.80;;
57467;SDS011;43311;51.196;7.518;2023-08-31T05:40:54;21.17;;;12.68;;
57467;SDS011;43311;51.196;7.518;2023-08-31T05:43:19;27.17;;;13.93;;
57467;SDS011;43311;51.196;7.518;2023-08-31T05:45:45;21.85;;;13.25;;
57467;SDS011;43311;51.196;7.518;2023-08-31T05:48:11;24.33;;;13.68;;
57467;SDS011;43311;51.196;7.518;2023-08-31T05:50:37;20.65;;;12.60;;
57467;SDS011;43311;51.196;7.518;2023-08-31T05:53:02;20.27;;;11.98;;
57467;SDS011;43311;51.196;7.518;2023-08-31T05:55:29;19.73;;;12.35;;
57467;SDS011;43311;51.196;7.518;2023-08-31T05:57:55;19.77;;;12.45;;
57467;SDS011;43311;51.196;7.518;2023-08-31T06:00:20;22.08;;;13.95;;
57467;SDS011;43311;51.196;7.518;2023-08-31T06:02:45;22.02;;;13.15;;
57467;SDS011;43311;51.196;7.518;2023-08-31T06:05:11;21.35;;;13.38;;
57467;SDS011;43311;51.196;7.518;2023-08-31T06:07:42;20.17;;;12.13;;
57467;SDS011;43311;51.196;7.518;2023-08-31T06:10:07;17.70;;;13.13;;
57467;SDS011;43311;51.196;7.518;2023-08-31T06:12:33;20.98;;;13.15;;
57467;SDS011;43311;51.196;7.518;2023-08-31T06:14:59;20.90;;;13.18;;
57467;SDS011;43311;51.196;7.518;2023-08-31T06:17:25;17.77;;;13.23;;
57467;SDS011;43311;51.196;7.518;2023-08-31T06:19:51;27.98;;;12.88;;
57467;SDS011;43311;51.196;7.518;2023-08-31T06:22:17;25.25;;;15.35;;
57467;SDS011;43311;51.196;7.518;2023-08-31T06:24:43;28.33;;;16.00;;
57467;SDS011;43311;51.196;7.518;2023-08-31T06:27:09;25.63;;;15.75;;
57467;SDS011;43311;51.196;7.518;2023-08-31T06:29:34;23.25;;;15.10;;
57467;SDS011;43311;51.196;7.518;2023-08-31T06:32:00;22.38;;;14.38;;
57467;SDS011;43311;51.196;7.518;2023-08-31T06:34:25;21.95;;;13.40;;
57467;SDS011;43311;51.196;7.518;2023-08-31T06:36:51;20.20;;;13.48;;
57467;SDS011;43311;51.196;7.518;2023-08-31T06:39:16;19.10;;;11.68;;
57467;SDS011;43311;51.196;7.518;2023-08-31T06:41:42;17.40;;;11.20;;
57467;SDS011;43311;51.196;7.518;2023-08-31T06:44:07;17.75;;;12.63;;
57467;SDS011;43311;51.196;7.518;2023-08-31T06:46:32;17.73;;;11.80;;
57467;SDS011;43311;51.196;7.518;2023-08-31T06:49:03;20.63;;;12.45;;
57467;SDS011;43311;51.196;7.518;2023-08-31T06:51:30;19.20;;;10.90;;
57467;SDS011;43311;51.196;7.518;2023-08-31T06:53:56;18.17;;;11.90;;
57467;SDS011;43311;51.196;7.518;2023-08-31T06:57:24;16.15;;;11.57;;
57467;SDS011;43311;51.196;7.518;2023-08-31T06:59:37;12.82;;;10.10;;
57467;SDS011;43311;51.196;7.518;2023-08-31T07:02:03;15.07;;;9.77;;
57467;SDS011;43311;51.196;7.518;2023-08-31T07:04:29;15.40;;;9.95;;
57467;SDS011;43311;51.196;7.518;2023-08-31T07:06:55;15.00;;;9.45;;
57467;SDS011;43311;51.196;7.518;2023-08-31T07:09:20;13.90;;;9.60;;
57467;SDS011;43311;51.196;7.518;2023-08-31T07:11:46;13.50;;;9.70;;
57467;SDS011;43311;51.196;7.518;2023-08-31T07:14:11;16.15;;;10.27;;
57467;SDS011;43311;51.196;7.518;2023-08-31T07:16:36;12.40;;;9.05;;
57467;SDS011;43311;51.196;7.518;2023-08-31T07:19:02;14.73;;;9.10;;
57467;SDS011;43311;51.196;7.518;2023-08-31T07:21:28;12.43;;;9.32;;
57467;SDS011;43311;51.196;7.518;2023-08-31T07:23:53;16.20;;;10.50;;
57467;SDS011;43311;51.196;7.518;2023-08-31T07:26:19;15.15;;;10.25;;
57467;SDS011;43311;51.196;7.518;2023-08-31T07:28:45;17.33;;;9.68;;
57467;SDS011;43311;51.196;7.518;2023-08-31T07:31:11;12.52;;;8.30;;
57467;SDS011;43311;51.196;7.518;2023-08-31T07:33:37;9.80;;;7.50;;
57467;SDS011;43311;51.196;7.518;2023-08-31T07:36:03;15.63;;;9.15;;
57467;SDS011;43311;51.196;7.518;2023-08-31T07:38:29;11.43;;;8.13;;
57467;SDS011;43311;51.196;7.518;2023-08-31T07:40:56;10.43;;;8.48;;
57467;SDS011;43311;51.196;7.518;2023-08-31T07:43:21;12.38;;;7.38;;
57467;SDS011;43311;51.196;7.518;2023-08-31T07:45:47;14.55;;;8.02;;
57467;SDS011;43311;51.196;7.518;2023-08-31T07:48:12;10.40;;;7.47;;
57467;SDS011;43311;51.196;7.518;2023-08-31T07:50:40;8.30;;;6.72;;
57467;SDS011;43311;51.196;7.518;2023-08-31T07:55:34;9.52;;;6.78;;
57467;SDS011;43311;51.196;7.518;2023-08-31T07:58:01;11.70;;;8.13;;
57467;SDS011;43311;51.196;7.518;2023-08-31T08:00:27;12.45;;;8.27;;
57467;SDS011;43311;51.196;7.518;2023-08-31T08:03:01;11.55;;;7.60;;
57467;SDS011;43311;51.196;7.518;2023-08-31T08:05:27;10.63;;;7.45;;
57467;SDS011;43311;51.196;7.518;2023-08-31T08:07:53;12.10;;;6.13;;
57467;SDS011;43311;51.196;7.518;2023-08-31T08:10:19;8.68;;;6.32;;
57467;SDS011;43311;51.196;7.518;2023-08-31T08:12:47;8.88;;;5.93;;
57467;SDS011;43311;51.196;7.518;2023-08-31T08:15:13;12.15;;;6.60;;
57467;SDS011;43311;51.196;7.518;2023-08-31T08:17:38;9.15;;;6.82;;
57467;SDS011;43311;51.196;7.518;2023-08-31T08:20:05;9.43;;;6.95;;
57467;SDS011;43311;51.196;7.518;2023-08-31T08:22:32;14.52;;;6.85;;
57467;SDS011;43311;51.196;7.518;2023-08-31T08:24:57;10.15;;;6.60;;
57467;SDS011;43311;51.196;7.518;2023-08-31T08:27:23;6.72;;;5.93;;
57467;SDS011;43311;51.196;7.518;2023-08-31T08:29:48;7.40;;;6.07;;
57467;SDS011;43311;51.196;7.518;2023-08-31T08:32:15;7.85;;;5.95;;
57467;SDS011;43311;51.196;7.518;2023-08-31T08:34:40;7.40;;;6.18;;
57467;SDS011;43311;51.196;7.518;2023-08-31T08:37:06;7.05;;;6.07;;
57467;SDS011;43311;51.196;7.518;2023-08-31T08:39:31;7.85;;;6.10;;
57467;SDS011;43311;51.196;7.518;2023-08-31T08:42:00;10.35;;;6.57;;
57467;SDS011;43311;51.196;7.518;2023-08-31T08:44:32;12.43;;;6.82;;
57467;SDS011;43311;51.196;7.518;2023-08-31T08:46:59;8.25;;;5.88;;
57467;SDS011;43311;51.196;7.518;2023-08-31T08:49:25;7.35;;;5.93;;
57467;SDS011;43311;51.196;7.518;2023-08-31T08:51:52;9.40;;;6.57;;
57467;SDS011;43311;51.196;7.518;2023-08-31T08:54:18;8.50;;;6.25;;
57467;SDS011;43311;51.196;7.518;2023-08-31T08:56:45;10.15;;;5.75;;
57467;SDS011;43311;51.196;7.518;2023-08-31T08:59:10;9.40;;;5.90;;
57467;SDS011;43311;51.196;7.518;2023-08-31T09:01:38;10.40;;;5.75;;
57467;SDS011;43311;51.196;7.518;2023-08-31T09:04:04;5.85;;;5.30;;
57467;SDS011;43311;51.196;7.518;2023-08-31T09:06:30;6.22;;;5.25;;
57467;SDS011;43311;51.196;7.518;2023-08-31T09:08:55;10.27;;;5.40;;
57467;SDS011;43311;51.196;7.518;2023-08-31T09:11:22;9.02;;;5.85;;
57467;SDS011;43311;51.196;7.518;2023-08-31T09:13:48;7.00;;;5.13;;
57467;SDS011;43311;51.196;7.518;2023-08-31T09:16:24;9.93;;;4.97;;
57467;SDS011;43311;51.196;7.518;2023-08-31T09:18:54;6.75;;;4.90;;
57467;SDS011;43311;51.196;7.518;2023-08-31T09:21:20;7.45;;;4.93;;
57467;SDS011;43311;51.196;7.518;2023-08-31T09:23:56;6.55;;;4.72;;
57467;SDS011;43311;51.196;7.518;2023-08-31T09:28:50;7.85;;;4.68;;
57467;SDS011;43311;51.196;7.518;2023-08-31T09:31:15;7.05;;;5.07;;
57467;SDS011;43311;51.196;7.518;2023-08-31T09:33:49;6.45;;;4.55;;
57467;SDS011;43311;51.196;7.518;2023-08-31T09:36:15;6.38;;;5.03;;
57467;SDS011;43311;51.196;7.518;2023-08-31T09:38:44;6.38;;;3.75;;
57467;SDS011;43311;51.196;7.518;2023-08-31T09:41:11;8.35;;;3.75;;
57467;SDS011;43311;51.196;7.518;2023-08-31T09:43:37;7.00;;;3.80;;
57467;SDS011;43311;51.196;7.518;2023-08-31T09:46:03;5.45;;;3.85;;
57467;SDS011;43311;51.196;7.518;2023-08-31T09:48:29;7.13;;;3.53;;
57467;SDS011;43311;51.196;7.518;2023-08-31T09:50:55;5.38;;;3.95;;
57467;SDS011;43311;51.196;7.518;2023-08-31T09:53:21;7.53;;;3.58;;
57467;SDS011;43311;51.196;7.518;2023-08-31T09:55:49;6.38;;;2.88;;
57467;SDS011;43311;51.196;7.518;2023-08-31T09:58:20;10.60;;;3.58;;
57467;SDS011;43311;51.196;7.518;2023-08-31T10:00:46;4.90;;;2.60;;
57467;SDS011;43311;51.196;7.518;2023-08-31T10:03:14;5.83;;;2.67;;
57467;SDS011;43311;51.196;7.518;2023-08-31T10:05:40;6.72;;;2.90;;
57467;SDS011;43311;51.196;7.518;2023-08-31T10:08:10;5.43;;;2.70;;
57467;SDS011;43311;51.196;7.518;2023-08-31T10:10:36;6.38;;;3.65;;
57467;SDS011;43311;51.196;7.518;2023-08-31T10:13:02;5.97;;;2.40;;
57467;SDS011;43311;51.196;7.518;2023-08-31T10:15:31;7.20;;;2.70;;
57467;SDS011;43311;51.196;7.518;2023-08-31T10:18:02;3.65;;;2.45;;
57467;SDS011;43311;51.196;7.518;2023-08-31T10:20:29;3.95;;;2.53;;
57467;SDS011;43311;51.196;7.518;2023-08-31T10:22:59;4.35;;;2.03;;
57467;SDS011;43311;51.196;7.518;2023-08-31T10:28:16;5.43;;;2.10;;
57467;SDS011;43311;51.196;7.518;2023-08-31T10:33:46;6.40;;;3.00;;
57467;SDS011;43311;51.196;7.518;2023-08-31T10:36:16;6.15;;;2.28;;
57467;SDS011;43311;51.196;7.518;2023-08-31T10:38:51;4.45;;;2.92;;
57467;SDS011;43311;51.196;7.518;2023-08-31T10:41:34;7.00;;;2.40;;
57467;SDS011;43311;51.196;7.518;2023-08-31T10:44:00;5.45;;;2.72;;
57467;SDS011;43311;51.196;7.518;2023-08-31T10:46:30;3.78;;;2.30;;
57467;SDS011;43311;51.196;7.518;2023-08-31T10:49:00;5.65;;;2.80;;
57467;SDS011;43311;51.196;7.518;2023-08-31T10:51:27;4.75;;;2.50;;
57467;SDS011;43311;51.196;7.518;2023-08-31T10:54:04;6.18;;;2.10;;
57467;SDS011;43311;51.196;7.518;2023-08-31T10:59:22;7.33;;;2.20;;
57467;SDS011;43311;51.196;7.518;2023-08-31T11:04:22;4.28;;;2.03;;
57467;SDS011;43311;51.196;7.518;2023-08-31T11:06:48;5.28;;;2.53;;
57467;SDS011;43311;51.196;7.518;2023-08-31T11:09:20;3.72;;;1.95;;
57467;SDS011;43311;51.196;7.518;2023-08-31T11:11:46;4.75;;;2.60;;
57467;SDS011;43311;51.196;7.518;2023-08-31T11:14:15;3.95;;;1.88;;
57467;SDS011;43311;51.196;7.518;2023-08-31T11:16:41;5.00;;;2.25;;
57467;SDS011;43311;51.196;7.518;2023-08-31T11:19:08;5.85;;;2.88;;
57467;SDS011;43311;51.196;7.518;2023-08-31T11:21:35;4.28;;;2.33;;
57467;SDS011;43311;51.196;7.518;2023-08-31T11:24:02;6.25;;;2.20;;
57467;SDS011;43311;51.196;7.518;2023-08-31T11:26:29;5.25;;;2.00;;
57467;SDS011;43311;51.196;7.518;2023-08-31T11:28:56;5.05;;;2.10;;
57467;SDS011;43311;51.196;7.518;2023-08-31T11:31:25;7.25;;;2.25;;
57467;SDS011;43311;51.196;7.518;2023-08-31T11:33:51;4.00;;;2.10;;
57467;SDS011;43311;51.196;7.518;2023-08-31T11:36:16;3.22;;;1.85;;
57467;SDS011;43311;51.196;7.518;2023-08-31T11:38:49;5.15;;;1.90;;
57467;SDS011;43311;51.196;7.518;2023-08-31T11:41:15;2.83;;;1.83;;
57467;SDS011;43311;51.196;7.518;2023-08-31T11:43:40;4.40;;;2.00;;
57467;SDS011;43311;51.196;7.518;2023-08-31T11:46:06;6.10;;;2.30;;
57467;SDS011;43311;51.196;7.518;2023-08-31T11:48:32;5.55;;;2.58;;
57467;SDS011;43311;51.196;7.518;2023-08-31T11:50:58;7.55;;;2.25;;
57467;SDS011;43311;51.196;7.518;2023-08-31T11:53:24;4.75;;;2.08;;
57467;SDS011;43311;51.196;7.518;2023-08-31T11:55:52;4.40;;;1.77;;
57467;SDS011;43311;51.196;7.518;2023-08-31T11:58:21;5.10;;;2.05;;
57467;SDS011;43311;51.196;7.518;2023-08-31T12:00:58;4.30;;;1.73;;
57467;SDS011;43311;51.196;7.518;2023-08-31T12:03:25;5.07;;;1.70;;
57467;SDS011;43311;51.196;7.518;2023-08-31T12:05:51;8.38;;;2.38;;
57467;SDS011;43311;51.196;7.518;2023-08-31T12:08:26;3.03;;;2.20;;
57467;SDS011;43311;51.196;7.518;2023-08-31T12:10:52;4.00;;;1.90;;
57467;SDS011;43311;51.196;7.518;2023-08-31T12:13:18;5.15;;;1.90;;
57467;SDS011;43311;51.196;7.518;2023-08-31T12:15:44;4.90;;;2.25;;
57467;SDS011;43311;51.196;7.518;2023-08-31T12:18:11;3.75;;;2.47;;
57467;SDS011;43311;51.196;7.518;2023-08-31T12:20:44;6.90;;;2.38;;
57467;SDS011;43311;51.196;7.518;2023-08-31T12:23:11;4.53;;;2.28;;
57467;SDS011;43311;51.196;7.518;2023-08-31T12:25:36;5.90;;;2.38;;
57467;SDS011;43311;51.196;7.518;2023-08-31T12:28:01;4.85;;;2.17;;
57467;SDS011;43311;51.196;7.518;2023-08-31T12:30:28;5.93;;;2.40;;
57467;SDS011;43311;51.196;7.518;2023-08-31T12:32:53;5.93;;;2.20;;
57467;SDS011;43311;51.196;7.518;2023-08-31T12:35:19;4.28;;;2.42;;
57467;SDS011;43311;51.196;7.518;2023-08-31T12:37:45;6.03;;;2.38;;
57467;SDS011;43311;51.196;7.518;2023-08-31T12:40:13;5.47;;;1.60;;
57467;SDS011;43311;51.196;7.518;2023-08-31T12:42:40;3.70;;;1.58;;
57467;SDS011;43311;51.196;7.518;2023-08-31T12:45:05;3.53;;;1.60;;
57467;SDS011;43311;51.196;7.518;2023-08-31T12:47:31;5.45;;;1.73;;
57467;SDS011;43311;51.196;7.518;2023-08-31T12:49:57;2.00;;;1.08;;
57467;SDS011;43311;51.196;7.518;2023-08-31T12:52:22;3.78;;;1.30;;
57467;SDS011;43311;51.196;7.518;2023-08-31T12:54:49;2.90;;;1.00;;
57467;SDS011;43311;51.196;7.518;2023-08-31T12:57:14;5.50;;;1.48;;
57467;SDS011;43311;51.196;7.518;2023-08-31T12:59:39;3.65;;;1.10;;
57467;SDS011;43311;51.196;7.518;2023-08-31T13:02:07;4.05;;;1.33;;
57467;SDS011;43311;51.196;7.518;2023-08-31T13:04:35;4.40;;;1.42;;
57467;SDS011;43311;51.196;7.518;2023-08-31T13:07:01;3.75;;;1.80;;
57467;SDS011;43311;51.196;7.518;2023-08-31T13:09:26;4.18;;;1.80;;
57467;SDS011;43311;51.196;7.518;2023-08-31T13:11:53;4.63;;;1.73;;
57467;SDS011;43311;51.196;7.518;2023-08-31T13:14:18;6.43;;;2.33;;
57467;SDS011;43311;51.196;7.518;2023-08-31T13:16:44;7.60;;;2.33;;
57467;SDS011;43311;51.196;7.518;2023-08-31T13:19:09;6.32;;;2.60;;
57467;SDS011;43311;51.196;7.518;2023-08-31T13:21:34;5.97;;;2.75;;
57467;SDS011;43311;51.196;7.518;2023-08-31T13:24:00;4.45;;;2.75;;
57467;SDS011;43311;51.196;7.518;2023-08-31T13:26:25;5.10;;;2.50;;
57467;SDS011;43311;51.196;7.518;2023-08-31T13:28:51;8.68;;;3.75;;
57467;SDS011;43311;51.196;7.518;2023-08-31T13:31:16;6.60;;;2.25;;
57467;SDS011;43311;51.196;7.518;2023-08-31T13:33:42;4.40;;;2.60;;
57467;SDS011;43311;51.196;7.518;2023-08-31T13:36:07;5.32;;;2.33;;
57467;SDS011;43311;51.196;7.518;2023-08-31T13:38:34;7.55;;;2.72;;
57467;SDS011;43311;51.196;7.518;2023-08-31T13:40:59;8.30;;;3.10;;
57467;SDS011;43311;51.196;7.518;2023-08-31T13:43:28;5.63;;;2.47;;
57467;SDS011;43311;51.196;7.518;2023-08-31T13:48:19;12.10;;;2.67;;
57467;SDS011;43311;51.196;7.518;2023-08-31T13:50:45;7.07;;;2.72;;
57467;SDS011;43311;51.196;7.518;2023-08-31T13:53:11;5.60;;;2.72;;
57467;SDS011;43311;51.196;7.518;2023-08-31T13:55:37;7.38;;;2.75;;
57467;SDS011;43311;51.196;7.518;2023-08-31T13:58:07;10.20;;;3.10;;
57467;SDS011;43311;51.196;7.518;2023-08-31T14:00:33;8.60;;;3.00;;
57467;SDS011;43311;51.196;7.518;2023-08-31T14:03:00;3.85;;;2.72;;
57467;SDS011;43311;51.196;7.518;2023-08-31T14:05:28;7.55;;;2.97;;
57467;SDS011;43311;51.196;7.518;2023-08-31T14:07:54;8.95;;;3.00;;
57467;SDS011;43311;51.196;7.518;2023-08-31T14:10:20;8.75;;;3.22;;
57467;SDS011;43311;51.196;7.518;2023-08-31T14:12:46;6.60;;;3.17;;
57467;SDS011;43311;51.196;7.518;2023-08-31T14:15:12;6.35;;;3.03;;
57467;SDS011;43311;51.196;7.518;2023-08-31T14:17:38;8.73;;;3.20;;
57467;SDS011;43311;51.196;7.518;2023-08-31T14:20:03;6.80;;;3.10;;
57467;SDS011;43311;51.196;7.518;2023-08-31T14:22:32;9.13;;;3.70;;
57467;SDS011;43311;51.196;7.518;2023-08-31T14:24:59;8.00;;;3.50;;
57467;SDS011;43311;51.196;7.518;2023-08-31T14:27:25;10.75;;;3.88;;
57467;SDS011;43311;51.196;7.518;2023-08-31T14:29:52;9.90;;;3.95;;
57467;SDS011;43311;51.196;7.518;2023-08-31T14:32:17;7.78;;;3.33;;
57467;SDS011;43311;51.196;7.518;2023-08-31T14:34:43;8.48;;;3.40;;
57467;SDS011;43311;51.196;7.518;2023-08-31T14:37:08;7.55;;;3.50;;
57467;SDS011;43311;51.196;7.518;2023-08-31T14:39:34;6.93;;;3.22;;
57467;SDS011;43311;51.196;7.518;2023-08-31T14:41:59;5.78;;;3.00;;
57467;SDS011;43311;51.196;7.518;2023-08-31T14:44:25;8.73;;;2.78;;
57467;SDS011;43311;51.196;7.518;2023-08-31T14:46:51;9.57;;;3.67;;
57467;SDS011;43311;51.196;7.518;2023-08-31T14:49:17;7.88;;;3.45;;
57467;SDS011;43311;51.196;7.518;2023-08-31T14:51:42;7.57;;;2.53;;
57467;SDS011;43311;51.196;7.518;2023-08-31T14:54:08;6.25;;;2.60;;
57467;SDS011;43311;51.196;7.518;2023-08-31T14:56:33;5.20;;;2.53;;
57467;SDS011;43311;51.196;7.518;2023-08-31T14:58:59;5.57;;;2.42;;
57467;SDS011;43311;51.196;7.518;2023-08-31T15:01:24;3.22;;;1.92;;